Main page
METAR-TAF:

METAR-TAF

Airports :

Federico Fellini International Airport

Rimini, Italy

latitude: 44-02N, longitude: 012-37E, elevation: 12 m

Current weather observation

The report was made 24 minutes ago, at 18:20 UTC
Wind 6 kt from the West
Temperature 7°C
Humidity 87%
Pressure 1006 hPa
Visibility 10 km or more
Few clouds at a height of 3000 ft
Scattered clouds at a height of 4000 ft
light drizzle

METAR: LIPR 191820Z 28006KT 9999 -DZ FEW030 SCT040 07/05 Q1006

Time: 19:44 (18:44 UTC)

Forecast

The report was made 1 hour and 44 minutes ago, at 17:00 UTC
Forecast valid from 19 at 18 UTC to 20 at 03 UTC
Wind 6 kt from the West
Visibility 10 km or more
Scattered clouds at a height of 3000 ft
Broken clouds at a height of 5000 ft
Temporary
from 19 at 18 UTC to 20 at 03 UTC
Visibility: 4000 m
rain

TAF: LIPR 191700Z 1918/2003 27006KT 9999 SCT030 BKN050 TEMPO 1918/2003 4000 RA

Weather observations and forecasts of more than 4000 airports (METAR and TAF reports).

The available stations are represented by yellow and red dots on the map.

Hover mouse over dot to see the name of the station.

Then click to see weather observations and forecasts.

To change the map : click on the green buttons with a black cross to zoom in, on the green button with a dash to zoom out, or on the green arrows for adjacent maps.


METAR-TAF: